createdAt,value
2023-03-21T00:56:27.312Z,0.50
2023-03-21T01:00:28.521Z,0.50
2023-03-21T01:04:28.507Z,0.34
2023-03-21T01:08:35.115Z,0.43
2023-03-21T01:12:28.508Z,0.34
2023-03-21T01:16:28.568Z,0.49
2023-03-21T01:20:28.445Z,0.50
2023-03-21T01:24:28.430Z,0.50
2023-03-21T01:28:28.452Z,0.51
2023-03-21T01:32:28.392Z,0.51
2023-03-21T01:36:28.436Z,0.50
2023-03-21T01:40:28.347Z,0.50
2023-03-21T01:44:28.342Z,0.51
2023-03-21T01:48:28.277Z,0.50
2023-03-21T01:52:37.864Z,0.50
2023-03-21T01:56:28.218Z,0.50
2023-03-21T02:00:28.198Z,0.50
2023-03-21T02:04:28.322Z,0.50
2023-03-21T02:08:38.265Z,0.51
2023-03-21T02:12:28.074Z,0.50
2023-03-21T02:16:28.296Z,0.50
2023-03-21T02:20:28.008Z,0.51
2023-03-21T02:24:27.934Z,0.51
2023-03-21T02:28:27.900Z,0.50
2023-03-21T02:32:37.022Z,0.50
2023-03-21T02:36:27.935Z,0.51
2023-03-21T02:40:27.731Z,0.51
2023-03-21T02:44:27.703Z,0.50
2023-03-21T02:48:35.319Z,0.50
2023-03-21T02:52:38.085Z,0.51
2023-03-21T02:56:27.578Z,0.51
2023-03-21T03:00:27.544Z,0.51
2023-03-21T03:04:27.647Z,0.51
2023-03-21T03:08:38.429Z,0.50
2023-03-21T03:12:27.450Z,0.50
2023-03-21T03:16:27.404Z,0.51
2023-03-21T03:20:27.408Z,0.50
2023-03-21T03:24:27.353Z,0.50
2023-03-21T03:28:27.331Z,0.51
2023-03-21T03:32:27.309Z,0.51
2023-03-21T03:36:32.240Z,0.51
2023-03-21T03:40:27.287Z,0.51
2023-03-21T03:44:27.260Z,0.51
2023-03-21T03:48:27.280Z,0.51
2023-03-21T03:52:27.244Z,0.51
2023-03-21T03:56:27.199Z,0.51
2023-03-21T04:00:27.191Z,0.51
2023-03-21T04:04:27.264Z,0.51
2023-03-21T04:08:27.175Z,0.51
2023-03-21T04:12:27.152Z,0.51
2023-03-21T04:16:27.200Z,0.51
2023-03-21T04:20:36.614Z,0.50
2023-03-21T04:24:27.138Z,0.50
2023-03-21T04:28:27.099Z,0.51
2023-03-21T04:32:27.075Z,0.50
2023-03-21T04:36:27.035Z,0.50
2023-03-21T04:40:27.026Z,0.51
2023-03-21T04:44:26.957Z,0.51
2023-03-21T04:48:26.914Z,0.50
2023-03-21T04:52:26.892Z,0.51
2023-03-21T04:56:26.885Z,0.51
2023-03-21T05:00:26.840Z,0.50
2023-03-21T05:04:26.973Z,0.51
2023-03-21T05:08:26.790Z,0.50
2023-03-21T05:12:26.793Z,0.50
2023-03-21T05:16:26.821Z,0.51
2023-03-21T05:20:26.684Z,0.51
2023-03-21T05:24:26.740Z,0.50
2023-03-21T05:28:27.216Z,0.51
2023-03-21T05:32:27.020Z,0.50
2023-03-21T05:36:27.166Z,0.51
2023-03-21T05:40:27.263Z,0.50
2023-03-21T05:44:27.358Z,0.51
2023-03-21T05:48:27.369Z,0.50
2023-03-21T05:52:27.363Z,0.51
2023-03-21T05:56:27.470Z,0.51
2023-03-21T06:00:29.628Z,0.51
2023-03-21T06:04:27.413Z,0.51
2023-03-21T06:08:27.465Z,0.51
2023-03-21T06:12:27.316Z,0.50
2023-03-21T06:16:27.599Z,0.50
2023-03-21T06:20:27.472Z,0.51
2023-03-21T06:24:27.494Z,0.56
2023-03-21T06:28:27.490Z,0.59
2023-03-21T06:32:27.506Z,0.64
2023-03-21T06:36:26.998Z,0.69
2023-03-21T06:40:26.980Z,0.79
2023-03-21T06:44:26.973Z,0.87
2023-03-21T06:48:27.056Z,0.91
2023-03-21T06:52:26.974Z,0.98
2023-03-21T06:56:27.187Z,1.13
2023-03-21T07:00:27.550Z,1.14
2023-03-21T07:04:27.106Z,1.25
2023-03-21T07:08:26.983Z,1.29
2023-03-21T07:12:26.612Z,1.40
2023-03-21T07:16:27.028Z,1.45
2023-03-21T07:20:27.014Z,1.55
2023-03-21T07:24:27.497Z,1.42
2023-03-21T07:28:28.106Z,1.36
2023-03-21T07:32:27.505Z,1.30
2023-03-21T07:36:28.043Z,1.33
2023-03-21T07:40:27.999Z,1.31
2023-03-21T07:44:28.029Z,1.25
2023-03-21T07:48:27.996Z,1.23
2023-03-21T07:52:28.026Z,1.23
2023-03-21T07:56:27.953Z,1.20
2023-03-21T08:00:28.593Z,1.17
2023-03-21T08:04:29.104Z,1.17
2023-03-21T08:08:28.542Z,1.15
2023-03-21T08:12:28.531Z,1.18
2023-03-21T08:16:28.237Z,1.14
2023-03-21T08:20:28.506Z,1.10
2023-03-21T08:24:28.553Z,1.13
2023-03-21T08:28:28.316Z,1.11
2023-03-21T08:32:28.523Z,1.04
2023-03-21T08:36:28.548Z,1.04
2023-03-21T08:40:28.575Z,1.08
2023-03-21T08:44:29.540Z,1.16
2023-03-21T08:48:28.549Z,1.26
2023-03-21T08:52:28.537Z,1.25
2023-03-21T08:56:29.082Z,1.20
2023-03-21T09:00:29.200Z,1.18
2023-03-21T09:04:29.119Z,1.17
2023-03-21T09:08:29.032Z,1.10
2023-03-21T09:12:29.079Z,1.20
2023-03-21T09:16:29.104Z,1.15
2023-03-21T09:20:29.075Z,1.13
2023-03-21T09:24:29.042Z,1.08
2023-03-21T09:28:29.089Z,1.07
2023-03-21T09:32:29.063Z,1.09
2023-03-21T09:36:29.064Z,1.06
2023-03-21T09:40:29.046Z,1.09
2023-03-21T09:44:28.594Z,0.90
2023-03-21T09:48:29.097Z,0.84
2023-03-21T09:52:29.188Z,0.86
2023-03-21T09:56:29.079Z,0.82
2023-03-21T10:00:29.119Z,0.85
2023-03-21T10:08:29.077Z,0.84
2023-03-21T10:12:28.547Z,0.84
2023-03-21T10:16:28.548Z,0.78
2023-03-21T10:20:28.585Z,0.79
2023-03-21T10:24:28.564Z,0.77
2023-03-21T10:28:29.971Z,0.76
2023-03-21T10:32:28.582Z,0.71
2023-03-21T10:36:28.056Z,0.67
2023-03-21T10:40:28.059Z,0.59
2023-03-21T10:44:27.792Z,0.51
2023-03-21T10:48:28.296Z,0.52
2023-03-21T10:52:28.082Z,0.51
2023-03-21T10:56:27.705Z,0.51
2023-03-21T11:00:28.068Z,0.51
2023-03-21T11:04:28.105Z,0.50
2023-03-21T11:08:29.069Z,0.50
2023-03-21T11:12:28.595Z,0.36
2023-03-21T11:16:28.671Z,0.50
2023-03-21T11:20:29.103Z,0.50
2023-03-21T11:24:28.652Z,0.50
2023-03-21T11:28:29.102Z,0.51
2023-03-21T11:32:28.776Z,0.50
2023-03-21T11:36:29.115Z,0.50
2023-03-21T11:40:29.582Z,0.52
2023-03-21T11:44:29.090Z,0.58
2023-03-21T11:48:29.163Z,0.52
2023-03-21T11:52:30.216Z,0.50
2023-03-21T11:56:29.093Z,0.53
2023-03-21T12:00:29.096Z,0.50
2023-03-21T12:04:29.205Z,0.51
2023-03-21T12:08:29.132Z,0.55
2023-03-21T12:12:38.530Z,0.75
2023-03-21T12:16:29.165Z,0.83
2023-03-21T12:20:29.096Z,1.25
2023-03-21T12:24:29.141Z,1.39
2023-03-21T12:28:33.138Z,1.91
2023-03-21T12:32:29.495Z,2.03
2023-03-21T12:36:29.103Z,2.12
2023-03-21T12:40:29.081Z,2.44
2023-03-21T12:44:29.099Z,1.82
2023-03-21T12:48:29.489Z,1.64
2023-03-21T12:52:29.109Z,1.12
2023-03-21T12:56:29.210Z,1.10
2023-03-21T13:00:29.669Z,0.79
2023-03-21T13:04:29.681Z,0.96
2023-03-21T13:08:30.206Z,1.17
2023-03-21T13:12:30.233Z,9.42
2023-03-21T13:16:30.149Z,6.98
2023-03-21T13:20:30.631Z,4.30
2023-03-21T13:24:30.612Z,3.57
2023-03-21T13:28:30.743Z,3.30
2023-03-21T13:32:30.696Z,3.29
2023-03-21T13:36:30.449Z,3.07
2023-03-21T13:40:30.620Z,3.06
2023-03-21T13:44:30.771Z,2.93
2023-03-21T13:48:30.632Z,2.83
2023-03-21T13:52:31.147Z,2.80
2023-03-21T13:56:31.130Z,2.88
2023-03-21T14:00:31.443Z,2.78
2023-03-21T14:04:42.396Z,2.80
2023-03-21T14:08:37.231Z,2.77
2023-03-21T14:12:31.136Z,2.79
2023-03-21T14:16:30.765Z,2.69
2023-03-21T14:20:30.572Z,2.57
2023-03-21T14:24:30.641Z,2.43
2023-03-21T14:28:30.650Z,2.70
2023-03-21T14:32:30.779Z,2.41
2023-03-21T14:36:30.646Z,2.30
2023-03-21T14:40:30.358Z,2.36
2023-03-21T14:44:31.090Z,2.40
2023-03-21T14:48:30.795Z,2.30
2023-03-21T14:52:30.233Z,2.35
2023-03-21T14:56:30.654Z,2.46
2023-03-21T15:00:30.166Z,2.49
2023-03-21T15:04:30.273Z,2.60
2023-03-21T15:08:30.158Z,2.63
2023-03-21T15:12:30.155Z,2.65
2023-03-21T15:16:30.302Z,2.66
2023-03-21T15:20:30.052Z,2.89
2023-03-21T15:24:30.181Z,2.76
2023-03-21T15:28:30.225Z,2.78
2023-03-21T15:32:30.164Z,2.81
2023-03-21T15:36:30.291Z,2.71
2023-03-21T15:40:30.169Z,2.70
2023-03-21T15:44:30.171Z,2.52
2023-03-21T15:48:30.167Z,2.45
2023-03-21T15:52:29.791Z,2.47
2023-03-21T15:56:29.603Z,2.72
2023-03-21T16:00:29.710Z,2.95
2023-03-21T16:04:29.673Z,2.70
2023-03-21T16:08:29.619Z,2.76
2023-03-21T16:12:29.682Z,3.09
2023-03-21T16:16:29.745Z,3.30
2023-03-21T16:20:29.679Z,3.54
2023-03-21T16:24:29.737Z,3.78
2023-03-21T16:28:29.690Z,4.03
2023-03-21T16:32:29.501Z,4.29
2023-03-21T16:36:29.491Z,4.38
2023-03-21T16:40:29.484Z,4.59
2023-03-21T16:44:29.436Z,4.84
2023-03-21T16:48:29.478Z,4.92
2023-03-21T16:52:29.407Z,5.05
2023-03-21T16:56:29.423Z,5.18
2023-03-21T17:00:29.419Z,5.46
2023-03-21T17:04:29.400Z,5.49
2023-03-21T17:08:29.453Z,5.66
2023-03-21T17:12:29.540Z,5.69
2023-03-21T17:16:29.602Z,5.85
2023-03-21T17:20:29.552Z,5.83
2023-03-21T17:24:29.527Z,5.91
2023-03-21T17:28:29.532Z,6.00
2023-03-21T17:32:29.485Z,6.11
2023-03-21T17:36:29.475Z,6.13
2023-03-21T17:40:29.489Z,6.12
2023-03-21T17:44:29.503Z,6.13
2023-03-21T17:48:29.461Z,6.17
2023-03-21T17:52:29.449Z,6.15
2023-03-21T17:56:29.439Z,6.17
2023-03-21T18:00:29.446Z,6.24
2023-03-21T18:04:29.441Z,6.21
2023-03-21T18:08:29.745Z,6.27
2023-03-21T18:12:29.358Z,6.18
2023-03-21T18:16:29.443Z,6.18
2023-03-21T18:20:50.514Z,6.13
2023-03-21T18:24:29.303Z,6.21
2023-03-21T18:28:29.868Z,6.24
2023-03-21T18:32:29.351Z,6.15
2023-03-21T18:36:29.341Z,6.13
2023-03-21T18:40:29.202Z,6.18
2023-03-21T18:44:29.593Z,6.09
2023-03-21T18:48:31.853Z,6.07
2023-03-21T18:52:29.073Z,6.14
2023-03-21T19:00:29.048Z,6.18
2023-03-21T19:04:30.422Z,6.11
2023-03-21T19:08:29.031Z,6.15
2023-03-21T19:12:29.241Z,6.06
2023-03-21T19:16:32.702Z,6.06
2023-03-21T19:20:29.006Z,6.09
2023-03-21T19:24:29.319Z,6.07
2023-03-21T19:28:28.892Z,5.95
2023-03-21T19:32:28.864Z,5.90
2023-03-21T19:36:28.936Z,5.88
2023-03-21T19:40:28.787Z,5.93
2023-03-21T19:44:28.772Z,5.79
2023-03-21T19:48:28.794Z,5.74
2023-03-21T19:52:28.666Z,5.71
2023-03-21T19:56:28.579Z,5.69
2023-03-21T20:00:28.525Z,5.69
2023-03-21T20:04:28.467Z,5.56
2023-03-21T20:08:28.439Z,5.58
2023-03-21T20:12:28.364Z,5.52
2023-03-21T20:16:34.287Z,5.42
2023-03-21T20:20:28.290Z,5.49
2023-03-21T20:24:28.282Z,5.49
2023-03-21T20:28:29.121Z,5.43
2023-03-21T20:32:28.146Z,5.32
2023-03-21T20:36:43.914Z,5.25
2023-03-21T20:40:28.062Z,5.29
2023-03-21T20:44:51.859Z,5.27
2023-03-21T20:48:27.971Z,5.31
2023-03-21T20:56:27.913Z,5.30
2023-03-21T21:00:27.853Z,5.30
2023-03-21T21:04:46.718Z,5.17
2023-03-21T21:08:27.773Z,5.20
2023-03-21T21:12:27.844Z,5.15
2023-03-21T21:16:27.796Z,5.13
2023-03-21T21:20:27.643Z,4.97
2023-03-21T21:24:27.609Z,4.97
2023-03-21T21:28:27.610Z,4.98
2023-03-21T21:32:27.531Z,4.89
2023-03-21T21:36:27.507Z,4.95
2023-03-21T21:40:27.477Z,4.80
2023-03-21T21:44:27.473Z,4.77
2023-03-21T21:48:27.427Z,4.78
2023-03-21T21:52:27.397Z,4.68
2023-03-21T21:56:27.359Z,4.65
2023-03-21T22:00:27.338Z,4.61
2023-03-21T22:04:27.283Z,4.64
2023-03-21T22:08:27.249Z,4.52
2023-03-21T22:12:27.219Z,4.52
2023-03-21T22:16:27.338Z,4.51
2023-03-21T22:20:27.175Z,4.47
2023-03-21T22:24:27.176Z,4.41
2023-03-21T22:28:27.166Z,4.40
2023-03-21T22:32:27.162Z,4.30
2023-03-21T22:36:27.117Z,4.27
2023-03-21T22:40:27.097Z,4.23
2023-03-21T22:44:27.071Z,4.19
2023-03-21T22:48:27.082Z,4.18
2023-03-21T22:52:27.040Z,4.16
2023-03-21T22:56:27.023Z,4.19
2023-03-21T23:00:27.015Z,4.02
2023-03-21T23:04:27.214Z,4.07
2023-03-21T23:08:27.103Z,4.03
2023-03-21T23:12:27.133Z,3.95
2023-03-21T23:16:27.213Z,3.94
2023-03-21T23:20:27.199Z,3.91
2023-03-21T23:24:27.193Z,3.88
2023-03-21T23:28:27.248Z,3.88
2023-03-21T23:32:27.268Z,3.85
2023-03-21T23:36:27.316Z,3.81
2023-03-21T23:40:27.335Z,3.78
2023-03-21T23:44:27.346Z,3.70
2023-03-21T23:48:27.433Z,3.72
2023-03-21T23:52:27.447Z,3.70
2023-03-21T23:56:27.454Z,3.66
